Time;durP1;ratioP1;P1;durP2;ratioP2;P2;SDS_P1;SDS_P2;PMS_P1;PMS_P2;Temp;Humidity;BMP_temperature;BMP_pressure;BME280_temperature;BME280_humidity;BME280_pressure;Samples;Min_cycle;Max_cycle;Signal;HPM_P1;HPM_P2
2022/07/12 00:03:56;;;;;;;0.63;0.55;;;16.40;99.90;;;;;;10268426;28;20061;-61
2022/07/12 00:08:58;;;;;;;2.53;0.47;;;16.30;99.90;;;;;;10249964;28;20065;-61
2022/07/12 00:13:59;;;;;;;0.60;0.40;;;16.20;99.90;;;;;;10267150;28;20105;-61
2022/07/12 00:19:01;;;;;;;0.65;0.40;;;16.10;99.90;;;;;;10266197;28;20055;-61
2022/07/12 00:24:03;;;;;;;1.25;0.40;;;16.10;99.90;;;;;;10269962;28;20043;-62
2022/07/12 00:29:05;;;;;;;0.50;0.30;;;15.90;99.90;;;;;;10274146;28;20047;-61
2022/07/12 00:34:06;;;;;;;2.88;0.22;;;15.80;99.90;;;;;;10273095;28;20367;-61
2022/07/12 00:39:08;;;;;;;0.50;0.30;;;15.70;99.90;;;;;;10273231;28;20158;-61
2022/07/12 00:44:10;;;;;;;1.02;0.40;;;15.70;99.90;;;;;;10272618;28;20490;-61
2022/07/12 00:49:15;;;;;;;0.80;0.38;;;15.70;99.90;;;;;;10272888;28;20038;-61
2022/07/12 00:54:17;;;;;;;0.60;0.30;;;15.60;99.90;;;;;;10273514;28;20051;-61
2022/07/12 00:59:18;;;;;;;0.75;0.30;;;15.50;99.90;;;;;;10274280;28;20046;-62
2022/07/12 01:04:20;;;;;;;2.45;0.50;;;15.50;99.90;;;;;;10272855;28;20061;-62
2022/07/12 01:09:22;;;;;;;2.08;0.63;;;15.50;99.90;;;;;;10271988;28;20051;-61
2022/07/12 01:14:24;;;;;;;1.92;0.50;;;15.50;99.90;;;;;;10270986;28;20046;-61
2022/07/12 01:19:26;;;;;;;1.08;0.40;;;15.40;99.90;;;;;;10273491;28;20047;-62
2022/07/12 01:24:28;;;;;;;0.68;0.30;;;15.40;99.90;;;;;;10272785;28;20047;-62
2022/07/12 01:29:31;;;;;;;1.40;0.40;;;15.40;99.90;;;;;;10271316;28;20055;-62
2022/07/12 01:34:32;;;;;;;0.30;0.30;;;15.40;99.90;;;;;;10270759;28;20114;-62
2022/07/12 01:39:35;;;;;;;2.70;0.40;;;15.30;99.90;;;;;;10272111;28;20186;-61
2022/07/12 01:44:36;;;;;;;1.75;0.30;;;15.30;99.90;;;;;;10272274;28;20054;-61
2022/07/12 01:49:38;;;;;;;1.13;0.35;;;15.20;99.90;;;;;;10271802;28;20054;-61
2022/07/12 01:54:40;;;;;;;0.68;0.38;;;15.20;99.90;;;;;;10268805;28;20077;-61
2022/07/12 01:59:43;;;;;;;0.70;0.50;;;15.10;99.90;;;;;;10271282;28;20055;-61
2022/07/12 02:04:44;;;;;;;1.77;0.47;;;15.00;99.90;;;;;;10270841;28;20054;-62
2022/07/12 02:09:46;;;;;;;0.65;0.40;;;14.80;99.90;;;;;;10267031;28;20046;-63
2022/07/12 02:14:48;;;;;;;1.75;0.40;;;14.80;99.90;;;;;;10269321;28;20059;-63
2022/07/12 02:19:50;;;;;;;4.57;0.47;;;14.60;99.90;;;;;;10270120;28;20382;-63
2022/07/12 02:24:51;;;;;;;0.70;0.40;;;14.60;99.90;;;;;;10270403;28;20493;-63
2022/07/12 02:29:53;;;;;;;2.42;0.43;;;14.50;99.90;;;;;;10270367;28;20054;-63
2022/07/12 02:34:54;;;;;;;0.95;0.40;;;14.50;99.90;;;;;;10269339;28;20121;-63
2022/07/12 02:40:53;;;;;;;0.95;0.60;;;14.40;99.90;;;;;;10268218;28;20086;-63
2022/07/12 02:45:18;;;;;;;1.67;0.52;;;14.50;99.90;;;;;;10267045;28;20065;-63
2022/07/12 02:50:20;;;;;;;0.85;0.50;;;14.50;99.90;;;;;;10269840;28;20109;-63
2022/07/12 02:55:21;;;;;;;1.02;0.50;;;14.50;99.90;;;;;;10267959;28;20125;-63
2022/07/12 03:00:23;;;;;;;2.22;0.90;;;14.50;99.90;;;;;;10267795;28;20062;-63
2022/07/12 03:05:25;;;;;;;1.02;0.50;;;14.60;99.90;;;;;;10268363;28;20089;-63
2022/07/12 03:10:26;;;;;;;0.85;0.40;;;14.50;99.90;;;;;;10268071;28;20054;-63
2022/07/12 03:15:28;;;;;;;0.88;0.50;;;14.50;99.90;;;;;;10268345;28;20047;-62
2022/07/12 03:20:30;;;;;;;0.93;0.40;;;14.50;99.90;;;;;;10268935;28;20394;-61
2022/07/12 03:25:32;;;;;;;0.77;0.30;;;14.40;99.90;;;;;;10267047;28;20058;-61
2022/07/12 03:30:34;;;;;;;2.28;0.43;;;14.40;99.90;;;;;;10269674;28;20109;-60
2022/07/12 03:35:35;;;;;;;0.60;0.43;;;14.40;99.90;;;;;;10268864;28;20054;-60
2022/07/12 03:40:37;;;;;;;1.17;0.50;;;14.30;99.90;;;;;;10267975;28;20087;-60
2022/07/12 03:45:40;;;;;;;0.85;0.60;;;14.30;99.90;;;;;;10267157;28;20414;-60
2022/07/12 03:50:42;;;;;;;2.78;0.55;;;14.30;99.90;;;;;;10268547;28;20562;-59
2022/07/12 03:55:44;;;;;;;0.77;0.40;;;14.30;99.90;;;;;;10265354;28;20055;-60
2022/07/12 04:00:46;;;;;;;1.92;0.47;;;14.30;99.90;;;;;;10272630;28;20054;-60
2022/07/12 04:05:47;;;;;;;1.42;0.70;;;14.40;99.90;;;;;;10273988;28;20043;-60
2022/07/12 04:10:49;;;;;;;1.25;0.40;;;14.30;99.90;;;;;;10273619;28;20497;-59
2022/07/12 04:15:51;;;;;;;1.65;0.65;;;14.40;99.90;;;;;;10274261;28;20119;-60
2022/07/12 04:20:53;;;;;;;2.17;0.60;;;14.40;99.90;;;;;;10271742;28;20052;-62
2022/07/12 04:25:54;;;;;;;1.30;0.52;;;14.50;99.90;;;;;;10273505;28;20117;-62
2022/07/12 04:30:56;;;;;;;1.00;0.60;;;14.60;99.90;;;;;;10273618;28;20042;-58
2022/07/12 04:35:58;;;;;;;3.17;0.55;;;14.70;99.90;;;;;;10272288;28;20054;-61
2022/07/12 04:41:00;;;;;;;5.82;0.70;;;14.80;99.90;;;;;;10274452;28;20043;-60
2022/07/12 04:46:08;;;;;;;0.85;0.40;;;14.90;99.90;;;;;;10272594;28;20170;-61
2022/07/12 04:51:10;;;;;;;4.55;0.60;;;15.10;99.90;;;;;;10268854;28;20047;-61
2022/07/12 04:56:12;;;;;;;2.80;0.60;;;15.20;99.90;;;;;;10272495;28;20059;-60
2022/07/12 05:01:14;;;;;;;0.80;0.60;;;15.30;99.90;;;;;;10272987;28;20515;-61
2022/07/12 05:06:17;;;;;;;1.17;0.60;;;15.50;99.90;;;;;;10252822;28;20449;-61
2022/07/12 05:11:19;;;;;;;1.42;0.70;;;15.60;99.90;;;;;;10270881;28;20082;-61
2022/07/12 05:16:21;;;;;;;6.35;0.80;;;15.80;99.90;;;;;;10272555;28;20050;-61
2022/07/12 05:21:23;;;;;;;1.48;0.50;;;15.90;99.90;;;;;;10268458;28;20132;-62
2022/07/12 05:26:24;;;;;;;1.90;0.95;;;16.10;99.90;;;;;;10273647;28;20047;-59
2022/07/12 05:31:26;;;;;;;2.28;0.70;;;16.20;99.90;;;;;;10271867;28;20062;-59
2022/07/12 05:36:28;;;;;;;2.92;1.05;;;16.40;99.90;;;;;;10271456;28;20042;-60
2022/07/12 05:41:30;;;;;;;1.60;0.65;;;16.60;99.90;;;;;;10271765;28;20053;-60
2022/07/12 05:46:32;;;;;;;3.22;0.88;;;16.80;99.90;;;;;;10270518;28;20046;-60
2022/07/12 05:56:54;;;;;;;1.88;0.60;;;17.10;99.90;;;;;;10269956;28;20062;-59
2022/07/12 06:01:56;;;;;;;1.60;0.70;;;17.30;99.90;;;;;;10266381;28;20054;-60
2022/07/12 06:06:57;;;;;;;0.90;0.60;;;17.40;99.90;;;;;;10270539;28;20058;-60
2022/07/12 06:11:59;;;;;;;2.45;0.50;;;17.50;99.90;;;;;;10271863;28;20047;-60
2022/07/12 06:17:01;;;;;;;1.00;0.60;;;17.60;99.90;;;;;;10271541;28;20047;-60
2022/07/12 06:22:02;;;;;;;1.73;0.60;;;17.80;99.90;;;;;;10252665;28;20082;-59
2022/07/12 06:27:05;;;;;;;1.77;0.80;;;17.90;99.90;;;;;;10268916;28;20054;-59
2022/07/12 06:32:07;;;;;;;0.88;0.68;;;18.10;99.90;;;;;;10268314;28;20477;-60
2022/07/12 06:37:09;;;;;;;1.48;0.98;;;18.30;99.90;;;;;;10269684;28;20113;-57
2022/07/12 06:42:11;;;;;;;2.20;0.80;;;18.40;99.90;;;;;;10270326;28;20101;-57
2022/07/12 06:47:12;;;;;;;2.58;0.93;;;18.60;99.90;;;;;;10268970;28;20043;-58
2022/07/12 06:52:14;;;;;;;2.40;0.93;;;18.90;99.90;;;;;;10265942;28;20035;-58
2022/07/12 06:57:17;;;;;;;2.80;0.90;;;19.10;99.90;;;;;;10267499;28;20512;-57
2022/07/12 07:02:19;;;;;;;0.85;0.63;;;19.20;99.90;;;;;;10268628;28;20059;-58
2022/07/12 07:07:20;;;;;;;1.00;0.65;;;19.30;99.90;;;;;;10268107;28;20043;-61
2022/07/12 07:12:22;;;;;;;2.35;0.90;;;19.50;99.90;;;;;;10267516;28;20086;-61
2022/07/12 07:17:24;;;;;;;1.42;0.80;;;19.60;99.90;;;;;;10267953;28;20109;-61
2022/07/12 07:22:25;;;;;;;1.35;0.82;;;19.70;99.90;;;;;;10268537;28;20046;-61
2022/07/12 07:27:27;;;;;;;1.08;0.70;;;19.80;99.90;;;;;;10264664;28;20043;-61
2022/07/12 07:32:29;;;;;;;1.98;0.75;;;19.80;99.90;;;;;;10270067;28;20057;-61
2022/07/12 07:37:31;;;;;;;1.30;0.60;;;20.00;99.90;;;;;;10273260;28;20046;-61
2022/07/12 07:42:33;;;;;;;2.70;0.90;;;20.20;99.90;;;;;;10274471;28;20046;-61
2022/07/12 07:47:48;;;;;;;1.27;0.60;;;20.30;99.90;;;;;;10276256;28;20089;-61
2022/07/12 07:53:10;;;;;;;0.45;0.40;;;20.50;99.90;;;;;;10272836;28;20102;-61
2022/07/12 07:58:14;;;;;;;0.63;0.35;;;20.80;99.90;;;;;;10275154;28;20105;-59
2022/07/12 08:03:17;;;;;;;0.60;0.45;;;21.00;99.90;;;;;;10275438;28;20047;-60
2022/07/12 08:08:19;;;;;;;0.60;0.40;;;21.10;99.90;;;;;;10277076;28;20054;-61
2022/07/12 08:13:20;;;;;;;1.38;0.70;;;21.30;99.90;;;;;;10273521;28;20062;-62
2022/07/12 08:18:22;;;;;;;0.40;0.30;;;21.40;99.90;;;;;;10273947;28;20050;-61
2022/07/12 08:23:24;;;;;;;0.63;0.40;;;21.40;99.90;;;;;;10273192;28;20101;-59
2022/07/12 08:28:26;;;;;;;1.83;0.50;;;21.60;99.90;;;;;;10274170;28;20046;-59
2022/07/12 08:33:29;;;;;;;1.45;0.40;;;21.70;99.90;;;;;;10271956;28;20113;-60
2022/07/12 08:38:31;;;;;;;0.43;0.28;;;22.00;99.90;;;;;;10269786;28;20482;-60
2022/07/12 08:43:35;;;;;;;0.38;0.20;;;22.10;99.90;;;;;;10268347;28;20105;-58
2022/07/12 08:48:38;;;;;;;1.27;0.30;;;22.50;99.90;;;;;;10269510;28;20481;-60
2022/07/12 08:53:40;;;;;;;0.47;0.30;;;22.70;99.90;;;;;;10270576;28;20053;-61
2022/07/12 08:58:42;;;;;;;1.55;0.20;;;23.00;99.90;;;;;;10270067;28;20080;-61
2022/07/12 09:03:47;;;;;;;0.20;0.20;;;23.30;99.90;;;;;;10270310;28;20062;-61
2022/07/12 09:08:50;;;;;;;1.10;0.20;;;23.50;99.90;;;;;;10271879;28;20074;-61
2022/07/12 09:13:53;;;;;;;0.20;0.20;;;23.70;99.90;;;;;;10268437;28;20054;-61
2022/07/12 09:19:19;;;;;;;0.47;0.30;;;23.60;99.90;;;;;;10270900;28;20050;-60
2022/07/12 09:24:25;;;;;;;1.73;0.40;;;23.70;99.90;;;;;;10270456;28;20051;-60
2022/07/12 09:29:27;;;;;;;;;;;23.90;99.90;;;;;;10270906;28;21056;-60
2022/07/12 09:39:51;;;;;;;0.10;0.10;;;24.10;99.00;;;;;;10269163;28;20506;-59
2022/07/12 09:44:54;;;;;;;0.20;0.17;;;24.30;99.10;;;;;;10269491;28;20062;-61
2022/07/12 09:49:56;;;;;;;0.10;0.10;;;24.40;99.20;;;;;;10271423;28;20088;-60
2022/07/12 09:55:00;;;;;;;0.30;0.10;;;24.30;98.40;;;;;;10270320;28;20105;-60
2022/07/12 10:00:06;;;;;;;0.15;0.10;;;24.20;98.60;;;;;;10269513;28;20051;-59
2022/07/12 10:05:10;;;;;;;0.22;0.10;;;24.40;98.10;;;;;;10269619;28;20050;-58
2022/07/12 10:10:12;;;;;;;1.45;0.10;;;24.40;97.60;;;;;;10270608;28;20513;-58
2022/07/12 10:15:17;;;;;;;0.75;0.10;;;24.50;98.50;;;;;;10268923;28;20046;-61
2022/07/12 10:20:22;;;;;;;1.08;0.10;;;24.60;97.60;;;;;;10266907;28;20097;-59
2022/07/12 10:25:34;;;;;;;0.20;0.10;;;24.80;97.90;;;;;;10271604;28;20133;-59
2022/07/12 10:30:56;;;;;;;2.00;0.10;;;25.10;97.40;;;;;;10264981;28;20062;-60
2022/07/12 10:36:06;;;;;;;0.43;0.15;;;25.30;95.50;;;;;;10266005;28;20054;-60
2022/07/12 10:41:20;;;;;;;0.17;0.10;;;25.20;95.20;;;;;;10266696;28;20139;-59
2022/07/12 10:46:25;;;;;;;0.68;0.20;;;25.40;96.10;;;;;;10265217;28;20584;-59
2022/07/12 10:51:26;;;;;;;0.10;0.10;;;25.70;95.90;;;;;;10267904;28;20134;-60
2022/07/12 10:56:32;;;;;;;0.10;0.10;;;26.00;95.20;;;;;;10268839;28;20101;-59
2022/07/12 11:01:33;;;;;;;0.20;0.10;;;25.90;92.90;;;;;;10266908;28;20054;-60
2022/07/12 11:06:38;;;;;;;2.38;0.57;;;26.30;93.70;;;;;;10266587;28;20140;-60
2022/07/12 11:11:51;;;;;;;0.40;0.20;;;26.50;93.00;;;;;;10268575;28;20057;-61
2022/07/12 11:16:56;;;;;;;0.17;0.10;;;26.80;93.30;;;;;;10269316;28;20066;-60
2022/07/12 11:21:58;;;;;;;1.35;0.10;;;27.10;91.40;;;;;;10267454;28;20117;-58
2022/07/12 11:27:01;;;;;;;0.10;0.10;;;27.30;90.90;;;;;;10262881;28;20054;-60
2022/07/12 11:32:06;;;;;;;0.10;0.10;;;27.30;89.50;;;;;;10268425;28;20053;-59
2022/07/12 11:37:12;;;;;;;0.30;0.20;;;27.30;87.30;;;;;;10266745;28;20047;-59
2022/07/12 11:42:14;;;;;;;3.10;0.10;;;27.50;86.90;;;;;;10266335;28;20043;-59
2022/07/12 11:47:18;;;;;;;0.98;0.10;;;27.90;87.20;;;;;;10267462;28;20121;-60
2022/07/12 11:52:23;;;;;;;0.10;0.10;;;27.90;83.50;;;;;;10266302;28;20063;-61
2022/07/12 11:57:24;;;;;;;0.17;0.10;;;28.20;83.80;;;;;;10266564;28;20054;-59
2022/07/12 12:02:28;;;;;;;0.20;0.10;;;28.40;83.30;;;;;;10267944;28;20042;-62
2022/07/12 12:07:30;;;;;;;0.25;0.10;;;28.20;78.90;;;;;;10267330;28;20047;-61
2022/07/12 12:12:41;;;;;;;0.05;0.00;;;28.30;78.30;;;;;;10267822;28;20058;-60
2022/07/12 12:17:46;;;;;;;0.98;0.10;;;28.40;77.80;;;;;;10268817;28;20469;-60
2022/07/12 12:22:51;;;;;;;0.52;0.08;;;28.50;75.00;;;;;;10271833;28;20054;-61
2022/07/12 12:28:03;;;;;;;;;;;28.60;78.70;;;;;;10271003;28;20064;-59
2022/07/12 12:33:34;;;;;;;1.42;0.20;;;28.70;74.70;;;;;;10271363;28;19941;-60
2022/07/12 12:38:36;;;;;;;0.10;0.00;;;28.90;72.80;;;;;;10274290;28;20051;-58
2022/07/12 12:43:38;;;;;;;0.38;0.08;;;29.00;72.60;;;;;;10270804;28;20049;-58
2022/07/12 12:48:47;;;;;;;0.10;0.00;;;29.00;70.00;;;;;;10273016;28;20039;-60
2022/07/12 12:53:56;;;;;;;0.00;0.00;;;29.00;70.80;;;;;;10272763;28;20740;-60
2022/07/12 12:58:58;;;;;;;0.00;0.00;;;29.20;69.60;;;;;;10271804;28;20059;-60
2022/07/12 13:03:59;;;;;;;0.00;0.00;;;29.30;68.60;;;;;;10273645;28;20067;-60
2022/07/12 13:09:01;;;;;;;0.00;0.00;;;29.10;65.10;;;;;;10272324;28;20055;-59
2022/07/12 13:14:03;;;;;;;1.85;0.03;;;29.10;66.50;;;;;;10273886;28;20059;-60
2022/07/12 13:19:05;;;;;;;0.47;0.00;;;28.90;67.30;;;;;;10270885;28;20375;-60
2022/07/12 13:24:07;;;;;;;0.00;0.00;;;29.10;67.30;;;;;;10271754;28;20046;-60
2022/07/12 13:29:08;;;;;;;0.00;0.00;;;29.30;66.20;;;;;;10271821;28;20074;-59
2022/07/12 13:34:10;;;;;;;0.25;0.00;;;29.30;64.20;;;;;;10272210;28;20059;-59
2022/07/12 13:44:32;;;;;;;0.30;0.00;;;29.60;64.40;;;;;;10269446;28;20058;-60
2022/07/12 13:49:34;;;;;;;0.00;0.00;;;29.90;64.00;;;;;;10271113;28;20520;-60
2022/07/12 13:54:36;;;;;;;0.13;0.10;;;30.10;61.40;;;;;;10270432;28;20047;-60
2022/07/12 13:59:38;;;;;;;0.10;0.00;;;30.20;59.70;;;;;;10270672;28;20089;-58
2022/07/12 14:04:39;;;;;;;0.10;0.00;;;30.60;62.20;;;;;;10270475;28;20464;-59
2022/07/12 14:09:41;;;;;;;0.63;0.00;;;30.40;58.50;;;;;;10271003;28;20038;-59
2022/07/12 14:20:04;;;;;;;0.00;0.00;;;31.20;59.50;;;;;;10270582;28;20409;-59
2022/07/12 14:25:07;;;;;;;0.40;0.00;;;31.50;58.90;;;;;;10267101;28;20053;-59
2022/07/12 14:30:11;;;;;;;1.65;0.00;;;31.70;57.60;;;;;;10267899;28;20588;-59
2022/07/12 14:35:14;;;;;;;;;;;31.70;57.80;;;;;;10270443;28;20105;-60
2022/07/12 14:40:15;;;;;;;0.00;0.00;;;31.90;56.30;;;;;;10268322;28;19959;-60
2022/07/12 14:45:17;;;;;;;0.22;0.00;;;32.00;56.80;;;;;;10268161;28;20122;-60
2022/07/12 14:50:19;;;;;;;1.80;0.00;;;32.00;54.70;;;;;;10268488;28;20046;-60
2022/07/12 14:55:21;;;;;;;0.40;0.08;;;31.80;52.60;;;;;;10265419;28;20059;-59
2022/07/12 15:00:23;;;;;;;0.95;0.00;;;32.10;54.10;;;;;;10268309;28;20116;-59
2022/07/12 15:05:26;;;;;;;0.35;0.08;;;32.50;54.10;;;;;;10265462;28;20058;-59
2022/07/12 15:10:27;;;;;;;0.22;0.00;;;32.70;55.20;;;;;;10265046;28;20437;-60
2022/07/12 15:15:29;;;;;;;0.10;0.10;;;32.50;49.10;;;;;;10267511;28;20043;-59
2022/07/12 15:20:31;;;;;;;0.00;0.00;;;32.50;51.20;;;;;;10268517;28;20059;-59
2022/07/12 15:25:35;;;;;;;1.55;0.00;;;32.50;48.90;;;;;;10266849;28;20269;-59
2022/07/12 15:30:36;;;;;;;4.13;0.00;;;32.60;52.30;;;;;;10268259;28;20534;-59
2022/07/12 15:35:39;;;;;;;0.65;0.22;;;32.60;52.40;;;;;;10268398;28;20133;-59
2022/07/12 15:40:41;;;;;;;0.65;0.00;;;32.70;52.40;;;;;;10268748;28;20062;-59
2022/07/12 15:45:43;;;;;;;0.20;0.00;;;32.90;53.10;;;;;;10268012;28;20539;-59
2022/07/12 15:50:44;;;;;;;0.45;0.15;;;32.80;52.40;;;;;;10266119;28;20082;-60
2022/07/12 15:56:07;;;;;;;2.17;0.10;;;33.00;51.30;;;;;;10272455;28;20054;-60
2022/07/12 16:01:09;;;;;;;0.63;0.00;;;33.10;52.40;;;;;;10272698;28;20047;-60
2022/07/12 16:06:11;;;;;;;2.83;0.00;;;33.40;50.50;;;;;;10274140;28;20047;-60
2022/07/12 16:11:13;;;;;;;0.03;0.00;;;33.40;51.50;;;;;;10276153;28;20050;-59
2022/07/12 16:16:14;;;;;;;0.10;0.10;;;33.70;49.30;;;;;;10272750;28;20125;-60
2022/07/12 16:21:19;;;;;;;0.05;0.00;;;33.60;48.60;;;;;;10274161;28;20047;-61
2022/07/12 16:26:21;;;;;;;0.00;0.00;;;33.40;51.40;;;;;;10272209;28;20066;-60
2022/07/12 16:31:23;;;;;;;0.08;0.00;;;33.40;50.40;;;;;;10272641;28;20125;-60
2022/07/12 16:36:45;;;;;;;1.33;0.00;;;33.10;50.10;;;;;;10272664;28;20043;-60
2022/07/12 16:41:47;;;;;;;0.00;0.00;;;33.10;48.80;;;;;;10273848;28;20065;-60
2022/07/12 16:46:48;;;;;;;0.00;0.00;;;33.20;50.90;;;;;;10257167;28;20472;-60
2022/07/12 16:51:50;;;;;;;1.30;0.10;;;33.40;49.80;;;;;;10270761;28;20101;-61
2022/07/12 16:56:52;;;;;;;0.10;0.10;;;33.60;50.20;;;;;;10273830;28;20047;-61
2022/07/12 17:01:53;;;;;;;0.10;0.00;;;33.90;50.20;;;;;;10273305;28;20055;-61
2022/07/12 17:06:55;;;;;;;1.75;0.20;;;33.80;49.70;;;;;;10271226;28;20053;-58
2022/07/12 17:11:57;;;;;;;0.10;0.10;;;33.80;49.00;;;;;;10273748;28;20050;-60
2022/07/12 17:16:59;;;;;;;1.65;0.00;;;34.10;48.80;;;;;;10272024;28;20051;-60
2022/07/12 17:22:00;;;;;;;3.92;0.77;;;34.10;49.10;;;;;;10271975;28;20066;-58
2022/07/12 17:27:03;;;;;;;4.18;0.10;;;34.10;49.50;;;;;;10271674;28;20051;-59
2022/07/12 17:32:05;;;;;;;2.70;0.05;;;34.00;49.60;;;;;;10271474;28;20105;-59
2022/07/12 17:37:07;;;;;;;0.30;0.10;;;33.50;50.60;;;;;;10272301;28;20502;-59
2022/07/12 17:42:08;;;;;;;0.85;0.17;;;33.40;50.20;;;;;;10271673;28;20054;-58
2022/07/12 17:47:10;;;;;;;1.20;0.40;;;33.40;50.70;;;;;;10272093;28;20054;-59
2022/07/12 17:52:12;;;;;;;0.85;0.15;;;33.50;50.00;;;;;;10267065;28;20043;-59
2022/07/12 17:57:14;;;;;;;2.72;0.10;;;33.60;50.20;;;;;;10270846;28;20055;-60
2022/07/12 18:02:15;;;;;;;1.40;0.10;;;33.90;48.80;;;;;;10270799;28;20143;-59
2022/07/12 18:07:17;;;;;;;0.95;0.20;;;34.20;49.70;;;;;;10261416;28;20046;-59
2022/07/12 18:23:00;;;;;;;0.32;0.10;;;33.10;49.80;;;;;;10265024;28;20062;-58
2022/07/12 18:28:02;;;;;;;1.08;0.30;;;32.20;50.80;;;;;;10263526;28;20512;-58
2022/07/12 18:33:03;;;;;;;0.95;0.20;;;31.60;51.90;;;;;;10265042;28;20078;-58
2022/07/12 18:38:06;;;;;;;0.65;0.10;;;30.90;54.10;;;;;;10262885;28;20046;-58
2022/07/12 18:43:08;;;;;;;3.33;0.20;;;30.30;55.40;;;;;;10262627;28;20051;-59
2022/07/12 18:48:09;;;;;;;1.08;0.20;;;29.80;55.80;;;;;;10262093;28;20097;-58
2022/07/12 18:53:12;;;;;;;2.83;0.30;;;29.40;57.40;;;;;;10260012;28;20070;-59
2022/07/12 18:58:13;;;;;;;2.35;0.40;;;29.00;59.30;;;;;;10261496;28;20528;-58
2022/07/12 19:03:15;;;;;;;1.00;0.30;;;28.70;59.20;;;;;;10264161;28;20113;-57
2022/07/12 19:08:17;;;;;;;0.60;0.28;;;28.30;59.90;;;;;;10263697;28;20058;-58
2022/07/12 19:13:19;;;;;;;2.45;1.13;;;28.10;60.70;;;;;;10261720;28;20050;-58
2022/07/12 19:18:20;;;;;;;2.83;0.20;;;27.70;60.50;;;;;;10261502;28;20433;-58
2022/07/12 19:23:23;;;;;;;8.32;0.40;;;27.20;63.30;;;;;;10254952;28;20109;-58
2022/07/12 19:28:25;;;;;;;3.67;0.20;;;26.90;62.70;;;;;;10258385;28;20121;-58
2022/07/12 19:33:26;;;;;;;0.65;0.30;;;26.70;64.80;;;;;;10272915;28;20178;-58
2022/07/12 19:38:28;;;;;;;5.53;0.52;;;26.50;68.80;;;;;;10271402;28;20055;-58
2022/07/12 19:43:31;;;;;;;6.50;0.50;;;26.30;68.80;;;;;;10272016;28;20042;-58
2022/07/12 19:48:33;;;;;;;1.00;0.40;;;26.00;69.60;;;;;;10271009;28;20054;-58
2022/07/12 19:53:34;;;;;;;2.67;0.60;;;25.80;70.90;;;;;;10268684;28;20039;-57
2022/07/12 19:58:36;;;;;;;4.35;0.43;;;25.50;72.10;;;;;;10266670;28;20497;-58
2022/07/12 20:03:38;;;;;;;4.03;0.80;;;25.30;72.70;;;;;;10272715;28;20055;-59
2022/07/12 20:08:40;;;;;;;2.13;0.40;;;25.10;73.20;;;;;;10274681;28;20516;-58
2022/07/12 20:13:41;;;;;;;1.33;0.50;;;25.00;72.10;;;;;;10275433;28;20061;-58
2022/07/12 20:18:43;;;;;;;4.25;0.45;;;24.80;74.20;;;;;;10274744;28;20054;-59
2022/07/12 20:23:45;;;;;;;1.63;0.40;;;24.50;75.30;;;;;;10274504;28;20053;-61
2022/07/12 20:28:46;;;;;;;2.95;0.30;;;24.40;75.40;;;;;;10274328;28;20065;-61
2022/07/12 20:39:08;;;;;;;4.50;0.70;;;24.00;78.80;;;;;;10271702;28;20053;-62
2022/07/12 20:44:11;;;;;;;7.35;0.80;;;23.70;79.30;;;;;;10274248;28;20043;-62
2022/07/12 20:49:15;;;;;;;4.30;0.50;;;23.60;80.60;;;;;;10272609;28;20864;-61
2022/07/12 20:54:18;;;;;;;6.43;0.68;;;23.40;81.60;;;;;;10272295;28;20509;-61
2022/07/12 20:59:20;;;;;;;2.60;0.70;;;23.20;82.90;;;;;;10273113;28;20047;-61
2022/07/12 21:04:22;;;;;;;5.07;0.50;;;23.10;83.80;;;;;;10273342;28;20503;-62
2022/07/12 21:09:23;;;;;;;6.07;0.60;;;22.90;85.10;;;;;;10272952;28;20062;-63
2022/07/12 21:14:25;;;;;;;1.80;0.45;;;22.70;86.90;;;;;;10273326;28;20054;-62
2022/07/12 21:19:27;;;;;;;6.43;0.30;;;22.60;87.80;;;;;;10272411;28;20047;-63
2022/07/12 21:24:28;;;;;;;3.13;0.60;;;22.50;89.00;;;;;;10272003;28;20054;-62
2022/07/12 21:29:30;;;;;;;0.70;0.38;;;22.30;90.20;;;;;;10271394;28;20058;-62
2022/07/12 21:34:32;;;;;;;0.63;0.30;;;22.10;90.70;;;;;;10271734;28;20042;-62
2022/07/12 21:39:33;;;;;;;1.50;0.30;;;21.90;91.40;;;;;;10270634;28;20061;-62
2022/07/12 21:44:35;;;;;;;10.07;0.85;;;21.80;92.00;;;;;;10270305;28;20049;-62
2022/07/12 21:49:37;;;;;;;0.60;0.40;;;21.70;92.50;;;;;;10262034;28;20050;-62
2022/07/12 21:54:39;;;;;;;1.73;0.40;;;21.50;93.20;;;;;;10270224;28;20047;-62
2022/07/12 21:59:40;;;;;;;2.72;0.30;;;21.40;93.70;;;;;;10271122;28;20662;-62
2022/07/12 22:04:42;;;;;;;0.85;0.28;;;21.40;94.10;;;;;;10269796;28;20121;-62
2022/07/12 22:09:44;;;;;;;3.22;0.35;;;21.30;94.40;;;;;;10271368;28;20047;-62
2022/07/12 22:14:45;;;;;;;1.80;0.40;;;21.30;96.20;;;;;;10270399;28;20068;-61
2022/07/12 22:19:47;;;;;;;2.33;0.20;;;21.20;96.80;;;;;;10271369;28;20085;-62
2022/07/12 22:24:49;;;;;;;3.35;0.50;;;21.10;96.80;;;;;;10268890;28;20055;-62
2022/07/12 22:29:50;;;;;;;3.05;0.40;;;20.90;97.30;;;;;;10269080;28;20528;-61
2022/07/12 22:34:52;;;;;;;10.30;0.50;;;20.90;97.60;;;;;;10269269;28;20051;-61
2022/07/12 22:39:54;;;;;;;1.98;0.60;;;20.70;98.00;;;;;;10268835;28;20050;-61
2022/07/12 22:44:55;;;;;;;2.78;0.77;;;20.60;98.40;;;;;;10271151;28;20066;-61
2022/07/12 22:49:57;;;;;;;1.02;0.30;;;20.50;99.80;;;;;;10268977;28;20053;-61
2022/07/12 22:54:59;;;;;;;1.50;0.20;;;20.40;99.90;;;;;;10267676;28;20078;-61
2022/07/12 23:00:00;;;;;;;1.73;0.43;;;20.30;99.90;;;;;;10270958;28;20054;-61
2022/07/12 23:05:02;;;;;;;2.05;0.30;;;20.20;99.90;;;;;;10268432;28;20113;-61
2022/07/12 23:10:04;;;;;;;1.65;0.30;;;19.90;99.90;;;;;;10266075;28;20046;-61
2022/07/12 23:15:07;;;;;;;1.30;0.65;;;19.90;99.90;;;;;;10264784;28;20046;-62
2022/07/12 23:20:09;;;;;;;1.60;0.40;;;19.90;99.90;;;;;;10267831;28;20058;-62
2022/07/12 23:25:11;;;;;;;1.20;0.40;;;20.00;99.90;;;;;;10250884;28;20042;-61
2022/07/12 23:30:13;;;;;;;3.83;0.50;;;20.00;99.90;;;;;;10267702;28;20062;-61
2022/07/12 23:35:14;;;;;;;2.85;0.60;;;20.10;99.90;;;;;;10265737;28;20082;-62
2022/07/12 23:40:16;;;;;;;0.77;0.30;;;20.00;99.90;;;;;;10267827;28;20047;-62
2022/07/12 23:45:18;;;;;;;1.85;0.32;;;19.90;99.90;;;;;;10268001;28;20047;-61
2022/07/12 23:50:19;;;;;;;2.17;0.30;;;19.90;99.90;;;;;;10268071;28;20049;-62
2022/07/12 23:55:21;;;;;;;4.40;0.40;;;19.80;99.90;;;;;;10266991;28;20051;-61
